GMME

Rabat-Salé Airport

Rabat, Morocco
METAR GMME 231000Z VRB02KT 6000 FEW030 SCT200 15/09 Q1005 NOSIG
Observed Flight Rules
Feb-23 @ 10:00 UTC (33 minutes ago) Marginal Visual Flight Rules
Wind Visibility Clouds
Variable at 2 knots 6,003 meters
  • Few at 3,000' AGL
  • Scattered at 20,000' AGL
Temperatures Readings
Current 15°C / 59°F
Dewpoint 9°C / 48°F
Humidity 68%
Altimeter 29.68" Hg
Pressure 1005 hPa
Elevation 75
METAR GMME 231000Z VRB02KT 6000 FEW030 SCT200 15/09 Q1005 NOSIG
Observed Flight Rules
Feb-23 @ 10:00 UTC
(33 minutes ago)
MVFR
Wind Visibility
Variable at 2 knots 6,003 meters
Clouds
  • Few at 3,000' AGL
  • Scattered at 20,000' AGL
Temperature Dewpoint
15°C / 59°F 9°C / 48°F
Humidity Altimeter Pressure
68% 29.68" Hg 1005 hPa